»·PEaware :: N583SG KBFI-KOAK

N583SG :: KBFI-KOAK

FLIGHT INFORMATION

Flight Status: Arrived
Operator: Privately registered:
United States
More flights under this callsign
Pilot: Scott G. (88)
Aircraft: BOEING 737-200
(B732)
More flights by this aircraft type
Origin: KBFI Boeing Field/King Co Intl
United States
Destination: KOAK Metro Oakland Intl
United States
More flights between these airports :: More routes between these airports
Route: +KENT8 ZIGED BTG J1 RBL V23 SAC V334 SUNOL
File this flight plan on PilotEdge
Remarks:
Altitude:
(Current/Filed)
31,000ft
Speed:
(Current/Filed)
430kts
Departed: 29-Aug-19 09:48 AM
Arrived: 29-Aug-19 11:34 AM
Distance/Time
Traveled:
588nm/1:46
Distance/Time
To Go:
Arrived

Flight Plot

Page will automatically refresh every two minutes.


Map Options




Map Legend


Flown Route
Filed Route
Departure Airport
Arrival Airport
Navaid (VOR, NDB)
Fix

Horizontal Profiles

Position Reports

Time Latitude Longitude Heading Altitude Ground
Speed
29-Aug-19 08:48 47.535852 -122.311828 62 29ft 0kts
29-Aug-19 08:48 47.535852 -122.311828 62 29ft 0kts
29-Aug-19 08:50 47.535852 -122.311828 62 29ft 0kts
29-Aug-19 08:50 47.535852 -122.311828 62 29ft 0kts
29-Aug-19 08:51 47.535852 -122.311828 62 29ft 0kts
29-Aug-19 08:52 47.535852 -122.311828 62 29ft 0kts
29-Aug-19 08:53 47.535853 -122.311828 62 29ft 0kts
29-Aug-19 08:54 47.535853 -122.311828 62 29ft 0kts
29-Aug-19 08:55 47.535853 -122.311828 62 29ft 0kts
29-Aug-19 08:56 47.535853 -122.311828 62 29ft 0kts
29-Aug-19 08:57 47.535853 -122.311828 62 29ft 0kts
29-Aug-19 08:58 47.535853 -122.311828 62 29ft 0kts
29-Aug-19 08:59 47.535853 -122.311828 62 29ft 0kts
29-Aug-19 09:00 47.535853 -122.311828 62 29ft 0kts
29-Aug-19 09:01 47.535853 -122.311828 62 29ft 0kts
29-Aug-19 09:02 47.535853 -122.311828 62 29ft 0kts
29-Aug-19 09:03 47.535853 -122.311828 62 29ft 0kts
29-Aug-19 09:04 47.535853 -122.311828 62 29ft 0kts
29-Aug-19 09:05 47.535852 -122.311828 62 29ft 0kts
29-Aug-19 09:06 47.535852 -122.311828 62 29ft 0kts
29-Aug-19 09:07 47.535852 -122.311828 62 29ft 0kts
29-Aug-19 09:08 47.535852 -122.311828 62 29ft 0kts
29-Aug-19 09:09 47.535852 -122.311828 62 29ft 0kts
29-Aug-19 09:10 47.535852 -122.311828 62 29ft 0kts
29-Aug-19 09:11 47.535852 -122.311828 62 29ft 0kts
29-Aug-19 09:12 47.535852 -122.311828 62 29ft 0kts
29-Aug-19 09:13 47.535852 -122.311828 62 29ft 0kts
29-Aug-19 09:14 47.535852 -122.311828 62 29ft 0kts
29-Aug-19 09:15 47.535852 -122.311828 62 29ft 0kts
29-Aug-19 09:16 47.535852 -122.311828 62 29ft 0kts
29-Aug-19 09:17 47.535852 -122.311828 62 29ft 0kts
29-Aug-19 09:18 47.535852 -122.311828 62 29ft 0kts
29-Aug-19 09:19 47.535852 -122.311828 62 29ft 0kts
29-Aug-19 09:20 47.535852 -122.311828 62 29ft 0kts
29-Aug-19 09:21 47.535852 -122.311828 62 29ft 0kts
29-Aug-19 09:22 47.535852 -122.311828 62 29ft 0kts
29-Aug-19 09:23 47.535852 -122.311828 62 29ft 0kts
29-Aug-19 09:24 47.535852 -122.311828 62 29ft 0kts
29-Aug-19 09:25 47.535852 -122.311828 62 29ft 0kts
29-Aug-19 09:26 47.535852 -122.311828 62 29ft 0kts
29-Aug-19 09:27 47.535852 -122.311828 62 29ft 0kts
29-Aug-19 09:28 47.535852 -122.311828 62 29ft 0kts
29-Aug-19 09:29 47.535853 -122.311828 62 29ft 0kts
29-Aug-19 09:30 47.535853 -122.311828 62 29ft 0kts
29-Aug-19 09:31 47.535853 -122.311828 62 29ft 0kts
29-Aug-19 09:32 47.535853 -122.311828 62 29ft 0kts
29-Aug-19 09:33 47.535853 -122.311828 62 29ft 0kts
29-Aug-19 09:34 47.535853 -122.311828 62 29ft 0kts
29-Aug-19 09:35 47.535853 -122.311828 62 29ft 0kts
29-Aug-19 09:36 47.535853 -122.311828 62 29ft 0kts
29-Aug-19 09:37 47.535853 -122.311828 62 29ft 0kts
29-Aug-19 09:38 47.535853 -122.311828 62 29ft 0kts
29-Aug-19 09:39 47.535853 -122.311828 62 29ft 0kts
29-Aug-19 09:40 47.535923 -122.311652 53 29ft 4kts
29-Aug-19 09:41 47.538370 -122.313512 331 29ft 14kts
29-Aug-19 09:42 47.539882 -122.312386 63 29ft 0kts
29-Aug-19 09:43 47.539882 -122.312386 63 29ft 0kts
29-Aug-19 09:44 47.539882 -122.312386 63 29ft 0kts
29-Aug-19 09:45 47.539882 -122.312386 63 29ft 0kts
29-Aug-19 09:46 47.539882 -122.312386 63 29ft 0kts
29-Aug-19 09:47 47.533462 -122.305369 151 29ft 124kts
29-Aug-19 09:48 47.489285 -122.268612 151 1864ft 232kts
29-Aug-19 09:49 47.432420 -122.219887 151 1971ft 221kts
29-Aug-19 09:50 47.378672 -122.174797 152 2782ft 227kts
29-Aug-19 09:51 47.319918 -122.195347 205 4504ft 231kts
29-Aug-19 09:52 47.259021 -122.228943 188 6359ft 241kts
29-Aug-19 09:53 47.191902 -122.244267 190 9658ft 250kts
29-Aug-19 09:54 47.122610 -122.264307 193 12516ft 263kts
29-Aug-19 09:55 47.046203 -122.288845 193 14697ft 295kts
29-Aug-19 09:56 46.962024 -122.315955 194 16717ft 323kts
29-Aug-19 09:57 46.877845 -122.343157 195 18536ft 342kts
29-Aug-19 09:58 46.781206 -122.374697 195 20068ft 366kts
29-Aug-19 09:59 46.680199 -122.399050 183 21906ft 376kts
29-Aug-19 10:00 46.574892 -122.407773 189 23452ft 383kts
29-Aug-19 10:01 46.469502 -122.435054 195 24831ft 389kts
29-Aug-19 10:02 46.363590 -122.470347 194 26047ft 396kts
29-Aug-19 10:03 46.254310 -122.497477 189 27126ft 403kts
29-Aug-19 10:04 46.142877 -122.513931 188 28065ft 409kts
29-Aug-19 10:05 46.029261 -122.532564 190 28915ft 414kts
29-Aug-19 10:06 45.914771 -122.557063 191 29668ft 418kts
29-Aug-19 10:07 45.800357 -122.580056 190 30345ft 422kts
29-Aug-19 10:08 45.683819 -122.602211 188 30968ft 426kts
29-Aug-19 10:09 45.564744 -122.627323 194 31061ft 437kts
29-Aug-19 10:10 45.445504 -122.661819 181 31051ft 448kts
29-Aug-19 10:11 45.324994 -122.609062 161 31068ft 461kts
29-Aug-19 10:12 45.200359 -122.597512 187 31075ft 456kts
29-Aug-19 10:13 45.075050 -122.624047 193 31075ft 458kts
29-Aug-19 10:14 44.950726 -122.664852 196 31071ft 457kts
29-Aug-19 10:15 44.828234 -122.701964 190 31055ft 448kts
29-Aug-19 10:16 44.706634 -122.723846 186 31052ft 440kts
29-Aug-19 10:17 44.585483 -122.734175 189 31057ft 432kts
29-Aug-19 10:18 44.467651 -122.755883 192 31072ft 425kts
29-Aug-19 10:19 44.351743 -122.781538 188 31081ft 425kts
29-Aug-19 10:20 44.233065 -122.782487 180 31082ft 429kts
29-Aug-19 10:21 44.114304 -122.766683 177 31082ft 431kts
29-Aug-19 10:22 43.995265 -122.748562 179 31082ft 431kts
29-Aug-19 10:23 43.875887 -122.744846 186 31083ft 428kts
29-Aug-19 10:24 43.757996 -122.759995 188 31090ft 428kts
29-Aug-19 10:25 43.639899 -122.777581 189 31079ft 428kts
29-Aug-19 10:26 43.520488 -122.778983 184 31073ft 431kts
29-Aug-19 10:27 43.401535 -122.790087 190 31073ft 428kts
29-Aug-19 10:28 43.284162 -122.813984 192 31073ft 427kts
29-Aug-19 10:29 43.166462 -122.838222 190 31072ft 429kts
29-Aug-19 10:30 43.047968 -122.852373 186 31071ft 431kts
29-Aug-19 10:31 42.928096 -122.859478 187 31059ft 431kts
29-Aug-19 10:32 42.808840 -122.870886 191 31054ft 430kts
29-Aug-19 10:33 42.690149 -122.888284 191 31054ft 430kts
29-Aug-19 10:34 42.570808 -122.902439 190 31054ft 432kts
29-Aug-19 10:35 42.451401 -122.916109 190 31054ft 432kts
29-Aug-19 10:36 42.332140 -122.922788 167 31050ft 449kts
29-Aug-19 10:37 42.223358 -122.833524 160 31053ft 455kts
29-Aug-19 10:38 42.104016 -122.789594 175 31070ft 443kts
29-Aug-19 10:39 41.983117 -122.767553 174 31098ft 443kts
29-Aug-19 10:40 41.863452 -122.724690 171 31111ft 446kts
29-Aug-19 10:42 41.742266 -122.690567 175 31109ft 444kts
29-Aug-19 10:43 41.621049 -122.666390 178 31110ft 443kts
29-Aug-19 10:44 41.499131 -122.644655 177 31109ft 444kts
29-Aug-19 10:45 41.377115 -122.616493 174 31109ft 447kts
29-Aug-19 10:46 41.255852 -122.577384 170 31108ft 451kts
29-Aug-19 10:47 41.135559 -122.531071 169 31081ft 453kts
29-Aug-19 10:48 41.014419 -122.486547 171 31043ft 453kts
29-Aug-19 10:49 40.892740 -122.451361 175 31035ft 452kts
29-Aug-19 10:50 40.769035 -122.423895 176 31037ft 452kts
29-Aug-19 10:51 40.645050 -122.394540 174 31037ft 456kts
29-Aug-19 10:52 40.521220 -122.357939 172 31036ft 459kts
29-Aug-19 10:53 40.397099 -122.318257 173 31039ft 458kts
29-Aug-19 10:54 40.272955 -122.283792 174 31040ft 456kts
29-Aug-19 10:55 40.152090 -122.250628 174 30440ft 436kts
29-Aug-19 10:56 40.035712 -122.215719 162 28931ft 432kts
29-Aug-19 10:57 39.932379 -122.140516 165 27551ft 416kts
29-Aug-19 10:58 39.839788 -122.097606 166 26405ft 406kts
29-Aug-19 10:59 39.726045 -122.044765 164 24279ft 450kts
29-Aug-19 11:00 39.610791 -121.985894 162 24056ft 440kts
29-Aug-19 11:01 39.499951 -121.926235 162 24061ft 425kts
29-Aug-19 11:01 39.408580 -121.877258 162 23056ft 432kts
29-Aug-19 11:03 39.282975 -121.798924 146 21874ft 436kts
29-Aug-19 11:04 39.185264 -121.719226 156 21160ft 395kts
29-Aug-19 11:04 39.109410 -121.656720 134 20078ft 391kts
29-Aug-19 11:05 39.035023 -121.579309 186 20039ft 333kts
29-Aug-19 11:07 38.939100 -121.634536 208 19827ft 316kts
29-Aug-19 11:07 38.876784 -121.677219 208 19144ft 308kts
29-Aug-19 11:09 38.781516 -121.675775 158 17863ft 315kts
29-Aug-19 11:09 38.716328 -121.635908 162 16973ft 308kts
29-Aug-19 11:10 38.634978 -121.609827 171 15681ft 299kts
29-Aug-19 11:11 38.554534 -121.588332 167 14279ft 293kts
29-Aug-19 11:12 38.476655 -121.562209 167 12984ft 285kts
29-Aug-19 11:13 38.403039 -121.566303 207 11834ft 271kts
29-Aug-19 11:14 38.336983 -121.584725 194 10998ft 252kts
29-Aug-19 11:15 38.273597 -121.605947 194 10923ft 234kts
29-Aug-19 11:16 38.203034 -121.628923 194 10941ft 289kts
29-Aug-19 11:17 38.128371 -121.652561 193 10581ft 264kts
29-Aug-19 11:18 38.057216 -121.674631 194 9702ft 263kts
29-Aug-19 11:19 37.986699 -121.696367 194 8886ft 261kts
29-Aug-19 11:20 37.916403 -121.718083 195 8069ft 261kts
29-Aug-19 11:21 37.846760 -121.739947 195 7350ft 259kts
29-Aug-19 11:22 37.776891 -121.762172 196 6654ft 258kts
29-Aug-19 11:23 37.706314 -121.779577 193 6030ft 259kts
29-Aug-19 11:24 37.637193 -121.799237 198 5518ft 248kts
29-Aug-19 11:25 37.598179 -121.866202 243 4704ft 243kts
29-Aug-19 11:26 37.568242 -121.942024 240 3916ft 234kts
29-Aug-19 11:27 37.570648 -122.017078 286 3013ft 212kts
29-Aug-19 11:28 37.605370 -122.068980 307 2967ft 182kts
29-Aug-19 11:29 37.635641 -122.115026 306 2083ft 145kts
29-Aug-19 11:30 37.657732 -122.148802 306 1389ft 123kts
29-Aug-19 11:31 37.679533 -122.181605 308 698ft 117kts
29-Aug-19 11:32 37.700648 -122.213012 310 46ft 115kts
29-Aug-19 11:33 37.711591 -122.229352 314 15ft 21kts
29-Aug-19 11:34 37.714608 -122.231357 357 15ft 0kts
29-Aug-19 11:35 37.714933 -122.231025 89 15ft 6kts
29-Aug-19 11:36 37.711326 -122.225269 128 15ft 27kts
29-Aug-19 11:37 37.715435 -122.218747 48 15ft 27kts
29-Aug-19 11:38 37.721147 -122.208620 68 15ft 39kts
29-Aug-19 11:39 37.726783 -122.206112 25 15ft 12kts
29-Aug-19 11:40 37.727015 -122.205927 35 15ft 0kts
29-Aug-19 11:41 37.727015 -122.205927 35 15ft 0kts

Navigation Log

Ident Type
Flight plan parsing failed, navigation log unavailable